Time;durP1;ratioP1;P1;durP2;ratioP2;P2;SDS_P1;SDS_P2;PMS_P1;PMS_P2;Temp;Humidity;BMP_temperature;BMP_pressure;BME280_temperature;BME280_humidity;BME280_pressure;Samples;Min_cycle;Max_cycle;Signal;HPM_P1;HPM_P2
2023/05/26 00:04:02;;;;;;;32.90;4.82;;;10.00;99.90;;;;;;12433424;28;20045;-38
2023/05/26 00:10:09;;;;;;;29.73;4.20;;;9.90;99.90;;;;;;12431832;28;20057;-36
2023/05/26 00:16:11;;;;;;;26.48;4.93;;;9.90;99.90;;;;;;12411251;28;20042;-36
2023/05/26 00:22:14;;;;;;;24.90;4.05;;;9.80;99.90;;;;;;12442677;28;20526;-36
2023/05/26 00:28:16;;;;;;;22.77;4.13;;;9.60;99.90;;;;;;12449468;28;20054;-37
2023/05/26 00:34:19;;;;;;;19.38;4.88;;;9.80;99.90;;;;;;12445336;28;20050;-36
2023/05/26 00:40:21;;;;;;;20.33;3.90;;;9.90;99.90;;;;;;12445533;28;20046;-36
2023/05/26 00:46:23;;;;;;;27.40;5.13;;;9.90;99.90;;;;;;12465305;28;20041;-37
2023/05/26 00:52:25;;;;;;;23.55;4.50;;;10.10;99.90;;;;;;12449244;28;20132;-37
2023/05/26 00:58:27;;;;;;;31.30;5.10;;;10.00;99.90;;;;;;12442915;28;20983;-36
2023/05/26 01:04:29;;;;;;;19.83;4.20;;;9.90;99.90;;;;;;12444788;28;20038;-36
2023/05/26 01:10:31;;;;;;;20.15;3.20;;;9.80;99.90;;;;;;12442444;28;20042;-36
2023/05/26 01:16:42;;;;;;;22.50;3.97;;;10.00;99.90;;;;;;12443380;28;20057;-36
2023/05/26 01:22:51;;;;;;;30.52;5.28;;;9.70;99.90;;;;;;12442742;28;20061;-36
2023/05/26 01:28:58;;;;;;;21.02;3.95;;;9.60;99.90;;;;;;12443824;28;20046;-36
2023/05/26 01:35:00;;;;;;;25.80;4.57;;;9.70;99.90;;;;;;12444530;28;20057;-37
2023/05/26 01:41:22;;;;;;;31.77;4.75;;;9.60;99.90;;;;;;12442043;28;20188;-36
2023/05/26 01:47:26;;;;;;;23.55;4.47;;;9.50;99.90;;;;;;12450189;28;20054;-36
2023/05/26 01:53:31;;;;;;;27.08;4.80;;;9.40;99.90;;;;;;12439261;28;20052;-37
2023/05/26 01:59:34;;;;;;;23.70;4.10;;;9.50;99.90;;;;;;12436920;28;20050;-36
2023/05/26 02:05:36;;;;;;;20.98;4.00;;;9.40;99.90;;;;;;12440274;28;20473;-36
2023/05/26 02:11:38;;;;;;;25.95;4.22;;;9.30;99.90;;;;;;12442960;28;20053;-36
2023/05/26 02:17:40;;;;;;;18.98;3.42;;;9.50;99.90;;;;;;12438242;28;20488;-36
2023/05/26 02:23:43;;;;;;;26.85;4.28;;;9.30;99.90;;;;;;12440311;28;20433;-36
2023/05/26 02:29:45;;;;;;;26.50;5.07;;;9.40;99.90;;;;;;12437177;28;20041;-36
2023/05/26 02:35:47;;;;;;;26.73;4.68;;;9.10;99.90;;;;;;12440080;28;20122;-36
2023/05/26 02:41:52;;;;;;;22.60;3.85;;;9.20;99.90;;;;;;12439197;28;20050;-36
2023/05/26 02:47:54;;;;;;;23.38;4.60;;;9.30;99.90;;;;;;12449850;28;20042;-36
2023/05/26 02:53:56;;;;;;;25.63;4.60;;;9.40;99.90;;;;;;12437965;28;20132;-36
2023/05/26 02:59:58;;;;;;;21.85;3.78;;;9.20;99.90;;;;;;12435053;28;20053;-36
2023/05/26 03:06:02;;;;;;;27.63;4.72;;;9.30;99.90;;;;;;12436219;28;20132;-36
2023/05/26 03:12:06;;;;;;;30.33;4.50;;;9.20;99.90;;;;;;12437871;28;20050;-36
2023/05/26 03:18:08;;;;;;;22.25;4.43;;;9.20;99.90;;;;;;12435607;28;20057;-36
2023/05/26 03:24:10;;;;;;;26.77;4.18;;;9.10;99.90;;;;;;12421295;28;20049;-37
2023/05/26 03:30:12;;;;;;;21.33;5.00;;;8.80;99.90;;;;;;12421725;28;20054;-36
2023/05/26 03:36:14;;;;;;;26.85;4.40;;;8.50;99.90;;;;;;12435908;28;20042;-36
2023/05/26 03:42:17;;;;;;;23.98;4.40;;;8.70;99.90;;;;;;12435817;28;20041;-37
2023/05/26 03:48:19;;;;;;;24.48;4.15;;;8.50;99.90;;;;;;12434696;28;20046;-36
2023/05/26 03:54:20;;;;;;;28.02;4.95;;;8.70;99.90;;;;;;12438861;28;20151;-37
2023/05/26 04:00:22;;;;;;;21.83;4.03;;;8.60;99.90;;;;;;12444190;28;20049;-36
2023/05/26 04:06:25;;;;;;;29.92;4.88;;;8.80;99.90;;;;;;12443677;28;20359;-36
2023/05/26 04:12:27;;;;;;;26.65;4.47;;;9.20;99.90;;;;;;12445865;28;20050;-37
2023/05/26 04:18:29;;;;;;;24.95;5.00;;;9.70;99.90;;;;;;12444734;28;20045;-37
2023/05/26 04:24:30;;;;;;;22.20;4.05;;;10.10;99.90;;;;;;12445975;28;20046;-36
2023/05/26 04:30:38;;;;;;;28.98;4.55;;;10.00;99.90;;;;;;12445381;28;20118;-36
2023/05/26 04:36:41;;;;;;;22.48;3.80;;;10.60;99.90;;;;;;12449701;28;20438;-36
2023/05/26 04:42:43;;;;;;;24.33;4.90;;;10.50;99.90;;;;;;12445611;28;20050;-36
2023/05/26 04:48:45;;;;;;;18.15;3.65;;;10.00;99.90;;;;;;12443931;28;20053;-36
2023/05/26 04:54:47;;;;;;;19.88;3.42;;;10.90;99.90;;;;;;12447099;28;20406;-36
2023/05/26 05:00:50;;;;;;;27.23;4.95;;;10.20;99.90;;;;;;12445548;28;20038;-36
2023/05/26 05:06:54;;;;;;;25.30;3.93;;;10.00;99.90;;;;;;12444045;28;20176;-36
2023/05/26 05:12:55;;;;;;;26.83;4.70;;;9.70;99.90;;;;;;12437553;28;20402;-36
2023/05/26 05:18:58;;;;;;;23.58;4.55;;;9.40;99.90;;;;;;12439837;28;20049;-36
2023/05/26 05:25:00;;;;;;;23.52;4.88;;;9.60;99.90;;;;;;12447972;28;20049;-36
2023/05/26 05:31:02;;;;;;;19.90;4.32;;;9.50;99.90;;;;;;12435826;28;20095;-37
2023/05/26 05:37:04;;;;;;;19.90;3.70;;;9.50;99.90;;;;;;12439769;28;20050;-36
2023/05/26 05:43:06;;;;;;;30.75;4.70;;;9.60;99.90;;;;;;12436733;28;20084;-36
2023/05/26 05:49:08;;;;;;;22.98;4.75;;;9.20;99.90;;;;;;12444228;28;20056;-36
2023/05/26 05:55:10;;;;;;;24.63;4.30;;;8.70;99.90;;;;;;12437355;28;20398;-36
2023/05/26 06:01:12;;;;;;;26.85;4.55;;;8.70;99.90;;;;;;12442594;28;20046;-37
2023/05/26 06:07:14;;;;;;;23.25;4.25;;;9.00;99.90;;;;;;12437531;28;20053;-36
2023/05/26 06:13:16;;;;;;;28.50;5.10;;;9.20;99.90;;;;;;12436994;28;20046;-36
2023/05/26 06:19:18;;;;;;;19.80;4.00;;;9.50;99.90;;;;;;12425864;28;20512;-36
2023/05/26 06:25:20;;;;;;;20.77;5.10;;;9.60;99.90;;;;;;12426029;28;20505;-36
2023/05/26 06:31:23;;;;;;;24.15;4.25;;;9.60;99.90;;;;;;12430511;28;20092;-36
2023/05/26 06:37:25;;;;;;;24.77;4.75;;;10.10;99.90;;;;;;12445251;28;20073;-36
2023/05/26 06:43:26;;;;;;;27.42;5.55;;;10.20;99.90;;;;;;12472129;28;20045;-36
2023/05/26 06:49:28;;;;;;;26.00;5.60;;;10.80;99.90;;;;;;12439302;28;20050;-37
2023/05/26 06:55:30;;;;;;;25.05;4.18;;;11.10;99.90;;;;;;12439363;28;20053;-36
2023/05/26 07:01:32;;;;;;;25.63;5.53;;;11.10;99.90;;;;;;12440473;28;20037;-36
2023/05/26 07:07:35;;;;;;;27.85;5.35;;;11.10;99.90;;;;;;12444996;28;20499;-36
2023/05/26 07:13:49;;;;;;;24.67;4.85;;;10.60;99.90;;;;;;12438343;28;20042;-37
2023/05/26 07:19:51;;;;;;;31.75;5.40;;;10.70;99.90;;;;;;12443151;28;20405;-36
2023/05/26 07:25:54;;;;;;;23.80;5.03;;;10.50;99.90;;;;;;12437536;28;20064;-37
2023/05/26 07:31:59;;;;;;;36.90;4.93;;;10.10;99.90;;;;;;12449041;28;20057;-36
2023/05/26 07:38:02;;;;;;;30.40;5.43;;;10.40;99.90;;;;;;12452717;28;20053;-36
2023/05/26 07:44:05;;;;;;;29.48;5.07;;;10.90;99.90;;;;;;12446509;28;20058;-36
2023/05/26 07:50:07;;;;;;;21.85;3.88;;;11.40;99.90;;;;;;12448004;28;20049;-37
2023/05/26 07:56:09;;;;;;;17.60;3.85;;;11.80;99.90;;;;;;12422069;28;20081;-37
2023/05/26 08:02:11;;;;;;;24.13;4.22;;;11.80;99.90;;;;;;12445387;28;20050;-37
2023/05/26 08:08:13;;;;;;;26.45;4.95;;;11.60;99.90;;;;;;12446108;28;20050;-37
2023/05/26 08:14:15;;;;;;;18.23;4.05;;;11.50;99.90;;;;;;12426018;28;20054;-36
2023/05/26 08:20:18;;;;;;;16.67;3.55;;;11.80;99.90;;;;;;12435280;28;20049;-36
2023/05/26 08:26:20;;;;;;;19.67;4.15;;;11.80;99.90;;;;;;12432727;28;20073;-37
2023/05/26 08:32:23;;;;;;;27.30;4.88;;;12.10;99.90;;;;;;12428242;28;20183;-36
2023/05/26 08:38:25;;;;;;;28.02;4.25;;;11.60;99.90;;;;;;12438410;28;20426;-38
2023/05/26 08:44:28;;;;;;;16.33;3.75;;;12.10;99.90;;;;;;12439788;28;20409;-37
2023/05/26 08:50:33;;;;;;;19.23;4.07;;;12.60;99.90;;;;;;12439938;28;20053;-37
2023/05/26 08:56:36;;;;;;;25.27;5.03;;;12.60;99.90;;;;;;12445173;28;20053;-36
2023/05/26 09:02:38;;;;;;;24.98;4.13;;;12.60;99.90;;;;;;12426281;28;20046;-37
2023/05/26 09:08:40;;;;;;;21.33;4.70;;;12.70;99.90;;;;;;12426717;28;20394;-37
2023/05/26 09:14:43;;;;;;;18.88;3.67;;;12.70;99.90;;;;;;12441895;28;20046;-37
2023/05/26 09:20:47;;;;;;;26.63;4.90;;;13.30;99.90;;;;;;12440361;28;20045;-37
2023/05/26 09:26:51;;;;;;;20.10;4.20;;;13.80;99.90;;;;;;12436938;28;20081;-37
2023/05/26 09:32:53;;;;;;;24.47;5.03;;;13.90;99.90;;;;;;12439339;28;20088;-37
2023/05/26 09:38:55;;;;;;;23.48;3.90;;;14.10;99.90;;;;;;12438271;28;20409;-37
2023/05/26 09:44:57;;;;;;;22.23;4.40;;;14.60;99.90;;;;;;12440867;28;20038;-37
2023/05/26 09:50:58;;;;;;;16.00;3.72;;;14.60;99.90;;;;;;12439693;28;20510;-38
2023/05/26 09:57:04;;;;;;;15.18;4.00;;;15.00;99.90;;;;;;12450116;28;20053;-37
2023/05/26 10:03:07;;;;;;;18.35;3.88;;;14.80;99.90;;;;;;12439991;28;20422;-37
2023/05/26 10:09:10;;;;;;;19.48;3.80;;;14.90;99.90;;;;;;12436060;28;20452;-37
2023/05/26 10:15:12;;;;;;;15.35;3.88;;;15.40;99.90;;;;;;12440729;28;20077;-37
2023/05/26 10:21:23;;;;;;;16.88;4.38;;;15.10;99.90;;;;;;12454862;28;20485;-37
2023/05/26 10:27:43;;;;;;;19.67;4.35;;;15.30;99.90;;;;;;12442870;28;20053;-37
2023/05/26 10:33:46;;;;;;;20.25;4.10;;;15.10;99.90;;;;;;12439325;28;20041;-37
2023/05/26 10:39:48;;;;;;;19.83;3.53;;;16.10;99.90;;;;;;12424261;28;20647;-36
2023/05/26 10:45:54;;;;;;;;;;;16.20;99.90;;;;;;12431426;28;20429;-37
2023/05/26 10:51:57;;;;;;;16.33;3.63;;;15.80;99.90;;;;;;12444577;28;19933;-37
2023/05/26 10:58:31;;;;;;;16.85;3.67;;;16.20;99.90;;;;;;12438528;28;20073;-37
2023/05/26 11:04:44;;;;;;;15.07;4.22;;;16.20;99.90;;;;;;12430528;28;20160;-35
2023/05/26 11:11:02;;;;;;;12.93;2.90;;;16.10;99.90;;;;;;12444916;28;20099;-36
2023/05/26 11:17:06;;;;;;;11.88;2.90;;;16.10;99.90;;;;;;12404165;28;20417;-36
2023/05/26 11:23:08;;;;;;;13.65;3.58;;;16.10;99.90;;;;;;12416328;28;20083;-36
2023/05/26 11:29:10;;;;;;;18.00;3.47;;;16.20;99.90;;;;;;12427709;28;20088;-36
2023/05/26 11:35:25;;;;;;;21.02;3.70;;;16.30;99.90;;;;;;12413759;28;20540;-37
2023/05/26 11:41:28;;;;;;;14.60;3.75;;;16.50;99.90;;;;;;12427958;28;20549;-36
2023/05/26 11:47:30;;;;;;;13.63;3.55;;;17.00;99.90;;;;;;12433458;28;20042;-36
2023/05/26 11:53:33;;;;;;;13.57;3.67;;;16.60;99.90;;;;;;12437208;28;20080;-36
2023/05/26 11:59:35;;;;;;;18.48;4.25;;;16.70;99.90;;;;;;12428160;28;20097;-36
2023/05/26 12:05:37;;;;;;;15.23;3.85;;;16.90;99.90;;;;;;12431797;28;20084;-36
2023/05/26 12:11:42;;;;;;;16.50;4.68;;;16.60;99.90;;;;;;12428099;28;20442;-36
2023/05/26 12:17:44;;;;;;;18.95;4.10;;;16.50;99.90;;;;;;12427544;28;20657;-36
2023/05/26 12:23:46;;;;;;;17.27;4.05;;;17.00;99.90;;;;;;12438387;28;20048;-36
2023/05/26 12:29:51;;;;;;;13.20;4.68;;;16.80;99.90;;;;;;12444164;28;20045;-36
2023/05/26 12:35:52;;;;;;;;;;;17.10;99.90;;;;;;12441317;28;20068;-36
2023/05/26 12:41:54;;;;;;;20.80;4.60;;;17.30;99.90;;;;;;12445254;28;19932;-36
2023/05/26 12:47:56;;;;;;;12.82;4.30;;;17.30;99.90;;;;;;12443522;28;20057;-36
2023/05/26 12:53:58;;;;;;;17.20;4.53;;;17.10;99.90;;;;;;12443959;28;20063;-36
2023/05/26 13:00:01;;;;;;;21.40;4.88;;;16.90;99.90;;;;;;12440940;28;20066;-36
2023/05/26 13:06:05;;;;;;;25.48;7.13;;;16.90;99.90;;;;;;12439308;28;20494;-36
2023/05/26 13:12:07;;;;;;;;;;;17.30;99.90;;;;;;12441668;28;20491;-36
2023/05/26 13:18:09;;;;;;;21.95;5.35;;;17.10;99.90;;;;;;12450843;28;19929;-36
2023/05/26 13:24:11;;;;;;;28.38;6.90;;;17.10;99.90;;;;;;12445862;28;20187;-36
2023/05/26 13:30:14;;;;;;;16.80;5.50;;;17.30;99.90;;;;;;12445053;28;20302;-36
2023/05/26 13:36:16;;;;;;;18.60;5.88;;;16.90;99.90;;;;;;12447048;28;20071;-36
2023/05/26 13:42:18;;;;;;;25.10;5.75;;;17.40;99.90;;;;;;12444868;28;20137;-37
2023/05/26 13:48:22;;;;;;;18.20;5.80;;;16.90;99.90;;;;;;12442754;28;20479;-36
2023/05/26 13:54:24;;;;;;;12.88;4.93;;;17.10;99.90;;;;;;12448516;28;20422;-36
2023/05/26 14:00:26;;;;;;;15.02;5.03;;;17.30;99.90;;;;;;12443883;28;20049;-36
2023/05/26 14:06:34;;;;;;;14.35;5.18;;;17.00;99.90;;;;;;12440324;28;20046;-36
2023/05/26 14:12:37;;;;;;;18.88;4.95;;;17.00;99.90;;;;;;12440341;28;20100;-36
2023/05/26 14:18:39;;;;;;;17.25;4.65;;;17.10;99.90;;;;;;12439305;28;20054;-36
2023/05/26 14:25:01;;;;;;;19.00;4.97;;;17.20;99.90;;;;;;12439948;28;20181;-36
2023/05/26 14:31:03;;;;;;;15.80;4.45;;;17.10;99.90;;;;;;12444772;28;20050;-36
2023/05/26 14:37:05;;;;;;;14.98;4.45;;;17.40;99.90;;;;;;12442076;28;20053;-37
2023/05/26 14:43:13;;;;;;;14.30;4.00;;;17.10;99.90;;;;;;12442855;28;20456;-38
2023/05/26 14:49:15;;;;;;;18.13;5.30;;;17.30;99.90;;;;;;12441511;28;20034;-36
2023/05/26 14:55:18;;;;;;;18.42;4.70;;;17.30;99.90;;;;;;12444932;28;20038;-36
2023/05/26 15:01:20;;;;;;;14.00;4.18;;;17.40;99.90;;;;;;12453417;28;20046;-36
2023/05/26 15:07:22;;;;;;;15.27;3.67;;;17.60;99.90;;;;;;12450744;28;20571;-36
2023/05/26 15:13:24;;;;;;;20.33;3.92;;;17.30;99.90;;;;;;12438006;28;20383;-38
2023/05/26 15:19:26;;;;;;;14.90;3.80;;;16.80;99.90;;;;;;12441529;28;20053;-36
2023/05/26 15:25:28;;;;;;;14.93;3.50;;;17.00;99.90;;;;;;12452142;28;20064;-36
2023/05/26 15:31:30;;;;;;;13.00;3.10;;;17.30;99.90;;;;;;12445291;28;20518;-36
2023/05/26 15:37:32;;;;;;;12.25;3.78;;;17.40;99.90;;;;;;12453095;28;20329;-36
2023/05/26 15:43:40;;;;;;;12.57;3.03;;;17.70;99.90;;;;;;12441229;28;20054;-36
2023/05/26 15:49:42;;;;;;;15.55;4.07;;;17.70;99.90;;;;;;12437676;28;20072;-36
2023/05/26 15:55:44;;;;;;;12.15;3.80;;;17.80;99.90;;;;;;12447771;28;20057;-39
2023/05/26 16:01:46;;;;;;;15.07;2.97;;;17.70;99.90;;;;;;12446133;28;20038;-36
2023/05/26 16:07:48;;;;;;;16.63;3.90;;;17.40;99.90;;;;;;12447144;28;20045;-36
2023/05/26 16:13:51;;;;;;;12.85;3.10;;;17.60;99.90;;;;;;12449329;28;20386;-36
2023/05/26 16:19:53;;;;;;;11.50;3.50;;;17.30;99.90;;;;;;12447944;28;20049;-37
2023/05/26 16:25:55;;;;;;;15.05;3.30;;;17.10;99.90;;;;;;12447120;28;20050;-37
2023/05/26 16:31:58;;;;;;;15.65;4.00;;;17.10;99.90;;;;;;12442429;28;20505;-37
2023/05/26 16:38:00;;;;;;;15.45;4.07;;;16.70;99.90;;;;;;12439205;28;20184;-37
2023/05/26 16:44:02;;;;;;;14.25;4.22;;;16.90;99.90;;;;;;12445191;28;20046;-37
2023/05/26 16:50:04;;;;;;;14.93;4.30;;;17.30;99.90;;;;;;12441869;28;20053;-37
2023/05/26 16:56:06;;;;;;;15.25;4.18;;;16.90;99.90;;;;;;12439108;28;20089;-37
2023/05/26 17:02:08;;;;;;;13.15;3.60;;;16.80;99.90;;;;;;12438722;28;20067;-37
2023/05/26 17:08:10;;;;;;;19.48;3.53;;;16.80;99.90;;;;;;12445498;28;20076;-37
2023/05/26 17:14:12;;;;;;;14.40;3.83;;;16.80;99.90;;;;;;12447326;28;20046;-37
2023/05/26 17:20:16;;;;;;;16.33;3.28;;;16.90;99.90;;;;;;12446303;28;20057;-37
2023/05/26 17:26:18;;;;;;;15.32;3.80;;;16.90;99.90;;;;;;12437325;28;20050;-36
2023/05/26 17:32:20;;;;;;;16.88;3.78;;;17.00;99.90;;;;;;12435262;28;20387;-37
2023/05/26 17:38:22;;;;;;;13.77;3.00;;;17.10;99.90;;;;;;12446389;28;20660;-38
2023/05/26 17:44:24;;;;;;;15.13;3.80;;;17.30;99.90;;;;;;12447605;28;20514;-37
2023/05/26 17:50:26;;;;;;;13.40;3.25;;;17.30;99.90;;;;;;12447200;28;20049;-37
2023/05/26 17:56:28;;;;;;;14.68;3.88;;;16.70;99.90;;;;;;12445565;28;20061;-37
2023/05/26 18:02:30;;;;;;;15.80;3.17;;;16.70;99.90;;;;;;12447366;28;20042;-37
2023/05/26 18:08:32;;;;;;;13.88;3.78;;;16.40;99.90;;;;;;12436064;28;20045;-36
2023/05/26 18:14:37;;;;;;;10.88;3.03;;;15.70;99.90;;;;;;12441774;28;20181;-36
2023/05/26 18:20:39;;;;;;;10.98;2.70;;;15.30;99.90;;;;;;12443231;28;20050;-36
2023/05/26 18:26:41;;;;;;;15.85;3.35;;;15.10;99.90;;;;;;12447611;28;20050;-36
2023/05/26 18:32:45;;;;;;;14.55;3.20;;;14.70;99.90;;;;;;12455821;28;20478;-35
2023/05/26 18:38:47;;;;;;;16.35;3.10;;;14.30;99.90;;;;;;12445068;28;20060;-35
2023/05/26 18:44:49;;;;;;;16.55;3.35;;;14.10;99.90;;;;;;12439409;28;20046;-35
2023/05/26 18:50:52;;;;;;;16.02;3.28;;;14.00;99.90;;;;;;12438987;28;20045;-36
2023/05/26 18:56:54;;;;;;;14.55;3.15;;;13.90;99.90;;;;;;12442746;28;20406;-36
2023/05/26 19:02:56;;;;;;;17.35;3.03;;;13.90;99.90;;;;;;12442526;28;20042;-35
2023/05/26 19:08:58;;;;;;;18.40;3.53;;;13.80;99.90;;;;;;12440162;28;20406;-35
2023/05/26 19:15:00;;;;;;;17.00;3.60;;;13.60;99.90;;;;;;12442771;28;20058;-35
2023/05/26 19:21:03;;;;;;;15.52;3.40;;;13.60;99.90;;;;;;12442236;28;20049;-35
2023/05/26 19:27:05;;;;;;;14.85;3.35;;;13.40;99.90;;;;;;12445576;28;20046;-35
2023/05/26 19:33:07;;;;;;;17.50;3.47;;;13.20;99.90;;;;;;12443791;28;20049;-35
2023/05/26 19:39:11;;;;;;;17.05;3.45;;;13.20;99.90;;;;;;12438237;28;20081;-35
2023/05/26 19:45:13;;;;;;;13.90;3.20;;;13.30;99.90;;;;;;12443178;28;20084;-35
2023/05/26 19:51:24;;;;;;;16.50;4.07;;;13.30;99.90;;;;;;12438000;28;20061;-35
2023/05/26 19:57:30;;;;;;;13.35;2.97;;;13.20;99.90;;;;;;12438539;28;20137;-35
2023/05/26 20:03:32;;;;;;;14.85;3.67;;;13.10;99.90;;;;;;12431026;28;20072;-35
2023/05/26 20:09:34;;;;;;;17.40;3.53;;;12.80;99.90;;;;;;12442394;28;20073;-35
2023/05/26 20:15:36;;;;;;;13.63;3.17;;;12.70;99.90;;;;;;12439980;28;20576;-35
2023/05/26 20:21:39;;;;;;;16.65;4.38;;;12.40;99.90;;;;;;12444258;28;20176;-35
2023/05/26 20:27:42;;;;;;;9.23;2.40;;;12.50;99.90;;;;;;12450988;28;20046;-35
2023/05/26 20:33:46;;;;;;;11.95;3.28;;;12.50;99.90;;;;;;12444915;28;20399;-35
2023/05/26 20:39:53;;;;;;;13.35;3.40;;;12.60;99.90;;;;;;12445012;28;20053;-34
2023/05/26 20:45:55;;;;;;;15.55;3.58;;;12.50;99.90;;;;;;12451273;28;20042;-35
2023/05/26 20:51:57;;;;;;;12.93;3.70;;;12.30;99.90;;;;;;12444160;28;20249;-34
2023/05/26 20:57:59;;;;;;;10.25;2.80;;;12.10;99.90;;;;;;12446565;28;20042;-35
2023/05/26 21:04:01;;;;;;;14.88;3.67;;;12.10;99.90;;;;;;12450737;28;20041;-35
2023/05/26 21:10:04;;;;;;;17.10;3.65;;;11.90;99.90;;;;;;12444379;28;20050;-35
2023/05/26 21:16:05;;;;;;;15.60;4.28;;;11.90;99.90;;;;;;12451441;28;20050;-36
2023/05/26 21:22:10;;;;;;;11.05;3.55;;;11.90;99.90;;;;;;12450322;28;20529;-35
2023/05/26 21:28:12;;;;;;;18.27;4.13;;;11.70;99.90;;;;;;12457519;28;20398;-35
2023/05/26 21:34:14;;;;;;;16.27;4.22;;;11.80;99.90;;;;;;12449968;28;20045;-35
2023/05/26 21:40:16;;;;;;;13.57;3.75;;;11.60;99.90;;;;;;12443996;28;20490;-35
2023/05/26 21:46:18;;;;;;;20.85;3.70;;;11.50;99.90;;;;;;12454055;28;20049;-36
2023/05/26 21:52:23;;;;;;;16.77;4.63;;;11.30;99.90;;;;;;12451972;28;20096;-35
2023/05/26 21:58:25;;;;;;;15.52;4.55;;;10.70;99.90;;;;;;12461406;28;20049;-35
2023/05/26 22:04:28;;;;;;;15.35;3.45;;;10.90;99.90;;;;;;12470689;28;20042;-35
2023/05/26 22:10:30;;;;;;;17.65;4.20;;;10.80;99.90;;;;;;12434325;28;20050;-37
2023/05/26 22:16:32;;;;;;;16.90;3.97;;;10.80;99.90;;;;;;12449583;28;20042;-37
2023/05/26 22:22:35;;;;;;;12.07;3.22;;;11.00;99.90;;;;;;12443210;28;20046;-37
2023/05/26 22:28:37;;;;;;;10.80;3.30;;;11.10;99.90;;;;;;12444342;28;20046;-37
2023/05/26 22:34:39;;;;;;;17.65;3.63;;;11.20;99.90;;;;;;12431583;28;20038;-37
2023/05/26 22:40:42;;;;;;;17.38;4.15;;;10.80;99.90;;;;;;12442441;28;20050;-37
2023/05/26 22:46:44;;;;;;;15.38;4.28;;;10.10;99.90;;;;;;12438002;28;20266;-37
2023/05/26 22:52:46;;;;;;;15.85;3.72;;;10.30;99.90;;;;;;12439139;28;20052;-37
2023/05/26 22:58:48;;;;;;;16.60;3.13;;;10.50;99.90;;;;;;12448005;28;20062;-37
2023/05/26 23:04:50;;;;;;;17.65;3.70;;;10.60;99.90;;;;;;12434798;28;20057;-37
2023/05/26 23:10:52;;;;;;;17.33;4.15;;;10.80;99.90;;;;;;12435742;28;20052;-37
2023/05/26 23:16:54;;;;;;;12.93;3.25;;;10.60;99.90;;;;;;12472204;28;20313;-37
2023/05/26 23:22:56;;;;;;;16.70;3.75;;;10.70;99.90;;;;;;12440662;28;20042;-38
2023/05/26 23:28:58;;;;;;;11.50;3.45;;;10.30;99.90;;;;;;12434424;28;20042;-37
2023/05/26 23:35:00;;;;;;;12.50;4.80;;;10.50;99.90;;;;;;12439231;28;20386;-36
2023/05/26 23:41:04;;;;;;;19.25;4.13;;;9.90;99.90;;;;;;12441355;28;20470;-37
2023/05/26 23:47:06;;;;;;;13.88;3.72;;;9.30;99.90;;;;;;12463434;28;20049;-37
2023/05/26 23:53:09;;;;;;;12.55;3.60;;;9.10;99.90;;;;;;12435258;28;20054;-37
2023/05/26 23:59:11;;;;;;;23.27;4.03;;;9.10;99.90;;;;;;12438682;28;20544;-37
